sensor_id;sensor_type;location;lat;lon;timestamp;temperature;humidity
8664;DHT22;4369;47.842;13.096;2023-04-16T00:02:19;5.90;99.90
8664;DHT22;4369;47.842;13.096;2023-04-16T00:04:46;5.80;99.90
8664;DHT22;4369;47.842;13.096;2023-04-16T00:07:12;5.90;99.90
8664;DHT22;4369;47.842;13.096;2023-04-16T00:09:41;5.90;99.90
8664;DHT22;4369;47.842;13.096;2023-04-16T00:12:08;5.90;99.90
8664;DHT22;4369;47.842;13.096;2023-04-16T00:14:35;5.90;99.90
8664;DHT22;4369;47.842;13.096;2023-04-16T00:17:02;5.90;99.90
8664;DHT22;4369;47.842;13.096;2023-04-16T00:19:28;6.00;99.90
8664;DHT22;4369;47.842;13.096;2023-04-16T00:21:55;6.00;99.90
8664;DHT22;4369;47.842;13.096;2023-04-16T00:24:22;6.00;99.90
8664;DHT22;4369;47.842;13.096;2023-04-16T00:26:50;6.00;99.90
8664;DHT22;4369;47.842;13.096;2023-04-16T00:29:17;6.00;99.90
8664;DHT22;4369;47.842;13.096;2023-04-16T00:31:44;6.00;99.90
8664;DHT22;4369;47.842;13.096;2023-04-16T00:34:11;5.90;99.90
8664;DHT22;4369;47.842;13.096;2023-04-16T00:36:38;6.00;99.90
8664;DHT22;4369;47.842;13.096;2023-04-16T00:39:04;6.00;99.90
8664;DHT22;4369;47.842;13.096;2023-04-16T00:41:31;6.00;99.90
8664;DHT22;4369;47.842;13.096;2023-04-16T00:44:00;6.00;99.90
8664;DHT22;4369;47.842;13.096;2023-04-16T00:46:26;6.10;99.90
8664;DHT22;4369;47.842;13.096;2023-04-16T00:48:53;6.10;99.90
8664;DHT22;4369;47.842;13.096;2023-04-16T00:51:21;6.00;99.90
8664;DHT22;4369;47.842;13.096;2023-04-16T00:53:48;6.00;99.90
8664;DHT22;4369;47.842;13.096;2023-04-16T00:56:15;6.00;99.90
8664;DHT22;4369;47.842;13.096;2023-04-16T00:58:42;6.00;99.90
8664;DHT22;4369;47.842;13.096;2023-04-16T01:01:10;6.00;99.90
8664;DHT22;4369;47.842;13.096;2023-04-16T01:03:42;6.00;99.90
8664;DHT22;4369;47.842;13.096;2023-04-16T01:06:10;6.00;99.90
8664;DHT22;4369;47.842;13.096;2023-04-16T01:08:37;6.00;99.90
8664;DHT22;4369;47.842;13.096;2023-04-16T01:11:05;6.00;99.90
8664;DHT22;4369;47.842;13.096;2023-04-16T01:13:32;5.90;99.90
8664;DHT22;4369;47.842;13.096;2023-04-16T01:16:00;5.90;99.90
8664;DHT22;4369;47.842;13.096;2023-04-16T01:18:28;6.00;99.90
8664;DHT22;4369;47.842;13.096;2023-04-16T01:20:56;5.90;99.90
8664;DHT22;4369;47.842;13.096;2023-04-16T01:23:23;6.00;99.90
8664;DHT22;4369;47.842;13.096;2023-04-16T01:25:50;6.00;99.90
8664;DHT22;4369;47.842;13.096;2023-04-16T01:28:16;6.00;99.90
8664;DHT22;4369;47.842;13.096;2023-04-16T01:30:43;6.00;99.90
8664;DHT22;4369;47.842;13.096;2023-04-16T01:33:11;6.00;99.90
8664;DHT22;4369;47.842;13.096;2023-04-16T01:35:38;6.00;99.90
8664;DHT22;4369;47.842;13.096;2023-04-16T01:38:08;6.00;99.90
8664;DHT22;4369;47.842;13.096;2023-04-16T01:40:36;6.00;99.90
8664;DHT22;4369;47.842;13.096;2023-04-16T01:43:03;6.00;99.90
8664;DHT22;4369;47.842;13.096;2023-04-16T01:45:33;6.00;99.90
8664;DHT22;4369;47.842;13.096;2023-04-16T01:48:00;6.00;99.90
8664;DHT22;4369;47.842;13.096;2023-04-16T01:50:27;6.00;99.90
8664;DHT22;4369;47.842;13.096;2023-04-16T01:52:55;6.00;99.90
8664;DHT22;4369;47.842;13.096;2023-04-16T01:55:23;6.00;99.90
8664;DHT22;4369;47.842;13.096;2023-04-16T01:57:51;6.00;99.90
8664;DHT22;4369;47.842;13.096;2023-04-16T02:00:18;6.00;99.90
8664;DHT22;4369;47.842;13.096;2023-04-16T02:02:45;6.00;99.90
8664;DHT22;4369;47.842;13.096;2023-04-16T02:05:13;6.00;99.90
8664;DHT22;4369;47.842;13.096;2023-04-16T02:07:40;6.00;99.90
8664;DHT22;4369;47.842;13.096;2023-04-16T02:10:08;6.00;99.90
8664;DHT22;4369;47.842;13.096;2023-04-16T02:12:36;6.00;99.90
8664;DHT22;4369;47.842;13.096;2023-04-16T02:15:04;6.00;99.90
8664;DHT22;4369;47.842;13.096;2023-04-16T02:17:31;6.00;99.90
8664;DHT22;4369;47.842;13.096;2023-04-16T02:19:58;5.90;99.90
8664;DHT22;4369;47.842;13.096;2023-04-16T02:22:27;5.80;99.90
8664;DHT22;4369;47.842;13.096;2023-04-16T02:24:54;5.70;99.90
8664;DHT22;4369;47.842;13.096;2023-04-16T02:27:20;5.80;99.90
8664;DHT22;4369;47.842;13.096;2023-04-16T02:29:49;5.90;99.90
8664;DHT22;4369;47.842;13.096;2023-04-16T02:32:16;5.90;99.90
8664;DHT22;4369;47.842;13.096;2023-04-16T02:34:42;5.80;99.90
8664;DHT22;4369;47.842;13.096;2023-04-16T02:37:09;5.80;99.90
8664;DHT22;4369;47.842;13.096;2023-04-16T02:39:36;5.80;99.90
8664;DHT22;4369;47.842;13.096;2023-04-16T02:42:03;5.90;99.90
8664;DHT22;4369;47.842;13.096;2023-04-16T02:44:30;5.80;99.90
8664;DHT22;4369;47.842;13.096;2023-04-16T02:46:58;5.80;99.90
8664;DHT22;4369;47.842;13.096;2023-04-16T02:49:25;5.80;99.90
8664;DHT22;4369;47.842;13.096;2023-04-16T02:51:51;5.80;99.90
8664;DHT22;4369;47.842;13.096;2023-04-16T02:54:18;5.70;99.90
8664;DHT22;4369;47.842;13.096;2023-04-16T02:56:45;5.70;99.90
8664;DHT22;4369;47.842;13.096;2023-04-16T02:59:12;5.70;99.90
8664;DHT22;4369;47.842;13.096;2023-04-16T03:01:39;5.60;99.90
8664;DHT22;4369;47.842;13.096;2023-04-16T03:04:07;5.60;99.90
8664;DHT22;4369;47.842;13.096;2023-04-16T03:06:34;5.60;99.90
8664;DHT22;4369;47.842;13.096;2023-04-16T03:09:01;5.60;99.90
8664;DHT22;4369;47.842;13.096;2023-04-16T03:11:27;5.60;99.90
8664;DHT22;4369;47.842;13.096;2023-04-16T03:13:54;5.50;99.90
8664;DHT22;4369;47.842;13.096;2023-04-16T03:16:21;5.60;99.90
8664;DHT22;4369;47.842;13.096;2023-04-16T03:18:48;5.70;99.90
8664;DHT22;4369;47.842;13.096;2023-04-16T03:21:16;5.70;99.90
8664;DHT22;4369;47.842;13.096;2023-04-16T03:23:43;5.70;99.90
8664;DHT22;4369;47.842;13.096;2023-04-16T03:26:10;5.70;99.90
8664;DHT22;4369;47.842;13.096;2023-04-16T03:28:37;5.70;99.90
8664;DHT22;4369;47.842;13.096;2023-04-16T03:31:04;5.60;99.90
8664;DHT22;4369;47.842;13.096;2023-04-16T03:33:30;5.60;99.90
8664;DHT22;4369;47.842;13.096;2023-04-16T03:35:58;5.60;99.90
8664;DHT22;4369;47.842;13.096;2023-04-16T03:38:26;5.70;99.90
8664;DHT22;4369;47.842;13.096;2023-04-16T03:40:53;5.60;99.90
8664;DHT22;4369;47.842;13.096;2023-04-16T03:43:19;5.70;99.90
8664;DHT22;4369;47.842;13.096;2023-04-16T03:45:46;5.70;99.90
8664;DHT22;4369;47.842;13.096;2023-04-16T03:48:14;5.60;99.90
8664;DHT22;4369;47.842;13.096;2023-04-16T03:50:44;5.70;99.90
8664;DHT22;4369;47.842;13.096;2023-04-16T03:53:12;5.70;99.90
8664;DHT22;4369;47.842;13.096;2023-04-16T03:55:40;5.70;99.90
8664;DHT22;4369;47.842;13.096;2023-04-16T03:58:07;5.70;99.90
8664;DHT22;4369;47.842;13.096;2023-04-16T04:00:34;5.70;99.90
8664;DHT22;4369;47.842;13.096;2023-04-16T04:03:01;5.70;99.90
8664;DHT22;4369;47.842;13.096;2023-04-16T04:05:28;5.70;99.90
8664;DHT22;4369;47.842;13.096;2023-04-16T04:07:55;5.80;99.90
8664;DHT22;4369;47.842;13.096;2023-04-16T04:10:22;5.90;99.90
8664;DHT22;4369;47.842;13.096;2023-04-16T04:12:50;5.90;99.90
8664;DHT22;4369;47.842;13.096;2023-04-16T04:15:17;5.90;99.90
8664;DHT22;4369;47.842;13.096;2023-04-16T04:17:44;5.90;99.90
8664;DHT22;4369;47.842;13.096;2023-04-16T04:20:11;5.90;99.90
8664;DHT22;4369;47.842;13.096;2023-04-16T04:22:38;5.80;99.90
8664;DHT22;4369;47.842;13.096;2023-04-16T04:25:07;5.80;99.90
8664;DHT22;4369;47.842;13.096;2023-04-16T04:27:34;5.70;99.90
8664;DHT22;4369;47.842;13.096;2023-04-16T04:30:02;5.70;99.90
8664;DHT22;4369;47.842;13.096;2023-04-16T04:32:29;5.70;99.90
8664;DHT22;4369;47.842;13.096;2023-04-16T04:34:57;5.80;99.90
8664;DHT22;4369;47.842;13.096;2023-04-16T04:37:24;5.80;99.90
8664;DHT22;4369;47.842;13.096;2023-04-16T04:39:51;5.80;99.90
8664;DHT22;4369;47.842;13.096;2023-04-16T04:42:19;5.80;99.90
8664;DHT22;4369;47.842;13.096;2023-04-16T04:44:46;5.80;99.90
8664;DHT22;4369;47.842;13.096;2023-04-16T04:47:14;5.90;99.90
8664;DHT22;4369;47.842;13.096;2023-04-16T04:49:41;5.90;99.90
8664;DHT22;4369;47.842;13.096;2023-04-16T04:52:08;5.80;99.90
8664;DHT22;4369;47.842;13.096;2023-04-16T04:54:36;5.80;99.90
8664;DHT22;4369;47.842;13.096;2023-04-16T04:57:06;5.80;99.90
8664;DHT22;4369;47.842;13.096;2023-04-16T04:59:32;5.90;99.90
8664;DHT22;4369;47.842;13.096;2023-04-16T05:01:59;5.80;99.90
8664;DHT22;4369;47.842;13.096;2023-04-16T05:04:29;5.80;99.90
8664;DHT22;4369;47.842;13.096;2023-04-16T05:06:56;5.80;99.90
8664;DHT22;4369;47.842;13.096;2023-04-16T05:09:22;5.80;99.90
8664;DHT22;4369;47.842;13.096;2023-04-16T05:11:49;5.90;99.90
8664;DHT22;4369;47.842;13.096;2023-04-16T05:14:16;5.90;99.90
8664;DHT22;4369;47.842;13.096;2023-04-16T05:16:43;5.80;99.90
8664;DHT22;4369;47.842;13.096;2023-04-16T05:19:10;5.80;99.90
8664;DHT22;4369;47.842;13.096;2023-04-16T05:21:38;5.80;99.90
8664;DHT22;4369;47.842;13.096;2023-04-16T05:24:05;5.80;99.90
8664;DHT22;4369;47.842;13.096;2023-04-16T05:26:32;5.90;99.90
8664;DHT22;4369;47.842;13.096;2023-04-16T05:28:59;5.80;99.90
8664;DHT22;4369;47.842;13.096;2023-04-16T05:31:26;5.80;99.90
8664;DHT22;4369;47.842;13.096;2023-04-16T05:33:53;5.80;99.90
8664;DHT22;4369;47.842;13.096;2023-04-16T05:36:19;5.70;99.90
8664;DHT22;4369;47.842;13.096;2023-04-16T05:38:48;5.80;99.90
8664;DHT22;4369;47.842;13.096;2023-04-16T05:41:15;5.80;99.90
8664;DHT22;4369;47.842;13.096;2023-04-16T05:43:42;5.80;99.90
8664;DHT22;4369;47.842;13.096;2023-04-16T05:46:08;5.90;99.90
8664;DHT22;4369;47.842;13.096;2023-04-16T05:48:35;5.90;99.90
8664;DHT22;4369;47.842;13.096;2023-04-16T05:51:02;6.00;99.90
8664;DHT22;4369;47.842;13.096;2023-04-16T05:53:29;6.00;99.90
8664;DHT22;4369;47.842;13.096;2023-04-16T05:55:57;6.10;99.90
8664;DHT22;4369;47.842;13.096;2023-04-16T05:58:24;6.10;99.90
8664;DHT22;4369;47.842;13.096;2023-04-16T06:00:51;6.10;99.90
8664;DHT22;4369;47.842;13.096;2023-04-16T06:03:18;6.00;99.90
8664;DHT22;4369;47.842;13.096;2023-04-16T06:05:45;6.00;99.90
8664;DHT22;4369;47.842;13.096;2023-04-16T06:08:11;6.00;99.90
8664;DHT22;4369;47.842;13.096;2023-04-16T06:10:38;6.10;99.90
8664;DHT22;4369;47.842;13.096;2023-04-16T06:13:07;6.20;99.90
8664;DHT22;4369;47.842;13.096;2023-04-16T06:15:34;6.20;99.90
8664;DHT22;4369;47.842;13.096;2023-04-16T06:18:01;6.30;99.90
8664;DHT22;4369;47.842;13.096;2023-04-16T06:20:27;6.30;99.90
8664;DHT22;4369;47.842;13.096;2023-04-16T06:22:55;6.10;99.90
8664;DHT22;4369;47.842;13.096;2023-04-16T06:25:22;6.00;99.90
8664;DHT22;4369;47.842;13.096;2023-04-16T06:27:49;6.00;99.90
8664;DHT22;4369;47.842;13.096;2023-04-16T06:30:18;6.00;99.90
8664;DHT22;4369;47.842;13.096;2023-04-16T06:32:45;6.00;99.90
8664;DHT22;4369;47.842;13.096;2023-04-16T06:35:12;6.00;99.90
8664;DHT22;4369;47.842;13.096;2023-04-16T06:37:39;6.10;99.90
8664;DHT22;4369;47.842;13.096;2023-04-16T06:40:07;6.00;99.90
8664;DHT22;4369;47.842;13.096;2023-04-16T06:42:34;5.90;99.90
8664;DHT22;4369;47.842;13.096;2023-04-16T06:45:00;6.00;99.90
8664;DHT22;4369;47.842;13.096;2023-04-16T06:47:29;6.10;99.90
8664;DHT22;4369;47.842;13.096;2023-04-16T06:49:56;6.10;99.90
8664;DHT22;4369;47.842;13.096;2023-04-16T06:52:22;6.30;99.90
8664;DHT22;4369;47.842;13.096;2023-04-16T06:54:49;6.30;99.90
8664;DHT22;4369;47.842;13.096;2023-04-16T06:57:16;6.30;99.90
8664;DHT22;4369;47.842;13.096;2023-04-16T06:59:43;6.40;99.90
8664;DHT22;4369;47.842;13.096;2023-04-16T07:02:10;6.40;99.90
8664;DHT22;4369;47.842;13.096;2023-04-16T07:04:38;6.40;99.90
8664;DHT22;4369;47.842;13.096;2023-04-16T07:07:05;6.50;99.90
8664;DHT22;4369;47.842;13.096;2023-04-16T07:09:32;6.50;99.90
8664;DHT22;4369;47.842;13.096;2023-04-16T07:11:59;6.50;99.90
8664;DHT22;4369;47.842;13.096;2023-04-16T07:14:26;6.60;99.90
8664;DHT22;4369;47.842;13.096;2023-04-16T07:16:53;6.60;99.90
8664;DHT22;4369;47.842;13.096;2023-04-16T07:19:19;6.70;99.90
8664;DHT22;4369;47.842;13.096;2023-04-16T07:21:48;6.60;99.90
8664;DHT22;4369;47.842;13.096;2023-04-16T07:24:15;6.70;99.90
8664;DHT22;4369;47.842;13.096;2023-04-16T07:26:42;6.80;99.90
8664;DHT22;4369;47.842;13.096;2023-04-16T07:29:09;6.90;99.90
8664;DHT22;4369;47.842;13.096;2023-04-16T07:31:36;6.90;99.90
8664;DHT22;4369;47.842;13.096;2023-04-16T07:34:03;6.90;99.90
8664;DHT22;4369;47.842;13.096;2023-04-16T07:36:30;6.90;99.90
8664;DHT22;4369;47.842;13.096;2023-04-16T07:38:59;7.00;99.90
8664;DHT22;4369;47.842;13.096;2023-04-16T07:41:26;7.10;99.90
8664;DHT22;4369;47.842;13.096;2023-04-16T07:43:54;7.30;99.90
8664;DHT22;4369;47.842;13.096;2023-04-16T07:46:20;7.40;99.90
8664;DHT22;4369;47.842;13.096;2023-04-16T07:48:47;7.50;99.90
8664;DHT22;4369;47.842;13.096;2023-04-16T07:51:14;7.70;99.90
8664;DHT22;4369;47.842;13.096;2023-04-16T07:53:41;7.80;99.90
8664;DHT22;4369;47.842;13.096;2023-04-16T07:56:09;7.80;99.90
8664;DHT22;4369;47.842;13.096;2023-04-16T07:58:36;7.70;99.90
8664;DHT22;4369;47.842;13.096;2023-04-16T08:01:03;7.90;99.90
8664;DHT22;4369;47.842;13.096;2023-04-16T08:03:30;7.90;99.90
8664;DHT22;4369;47.842;13.096;2023-04-16T08:05:57;7.90;99.90
8664;DHT22;4369;47.842;13.096;2023-04-16T08:08:24;7.90;99.90
8664;DHT22;4369;47.842;13.096;2023-04-16T08:10:52;8.00;99.90
8664;DHT22;4369;47.842;13.096;2023-04-16T08:13:22;8.00;99.90
8664;DHT22;4369;47.842;13.096;2023-04-16T08:15:49;7.90;99.90
8664;DHT22;4369;47.842;13.096;2023-04-16T08:18:16;7.90;99.90
8664;DHT22;4369;47.842;13.096;2023-04-16T08:20:43;7.90;99.90
8664;DHT22;4369;47.842;13.096;2023-04-16T08:23:09;7.90;99.90
8664;DHT22;4369;47.842;13.096;2023-04-16T08:25:36;7.80;99.90
8664;DHT22;4369;47.842;13.096;2023-04-16T08:28:04;7.60;99.90
8664;DHT22;4369;47.842;13.096;2023-04-16T08:30:32;7.50;99.90
8664;DHT22;4369;47.842;13.096;2023-04-16T08:32:59;7.70;99.90
8664;DHT22;4369;47.842;13.096;2023-04-16T08:35:26;7.70;99.90
8664;DHT22;4369;47.842;13.096;2023-04-16T08:37:53;7.70;99.90
8664;DHT22;4369;47.842;13.096;2023-04-16T08:40:20;7.70;99.90
8664;DHT22;4369;47.842;13.096;2023-04-16T08:42:51;7.70;99.90
8664;DHT22;4369;47.842;13.096;2023-04-16T08:45:21;7.70;99.90
8664;DHT22;4369;47.842;13.096;2023-04-16T08:47:50;7.70;99.90
8664;DHT22;4369;47.842;13.096;2023-04-16T08:50:22;7.60;99.90
8664;DHT22;4369;47.842;13.096;2023-04-16T08:52:51;7.50;99.90
8664;DHT22;4369;47.842;13.096;2023-04-16T08:55:19;7.50;99.90
8664;DHT22;4369;47.842;13.096;2023-04-16T08:57:49;7.60;99.90
8664;DHT22;4369;47.842;13.096;2023-04-16T09:00:18;7.60;99.90
8664;DHT22;4369;47.842;13.096;2023-04-16T09:02:45;7.40;99.90
8664;DHT22;4369;47.842;13.096;2023-04-16T09:05:15;7.50;99.90
8664;DHT22;4369;47.842;13.096;2023-04-16T09:07:43;7.50;99.90
8664;DHT22;4369;47.842;13.096;2023-04-16T09:10:11;7.60;99.90
8664;DHT22;4369;47.842;13.096;2023-04-16T09:12:41;7.40;99.90
8664;DHT22;4369;47.842;13.096;2023-04-16T09:15:09;7.40;99.90
8664;DHT22;4369;47.842;13.096;2023-04-16T09:17:36;7.50;99.90
8664;DHT22;4369;47.842;13.096;2023-04-16T09:20:04;7.40;99.90
8664;DHT22;4369;47.842;13.096;2023-04-16T09:22:34;7.50;99.90
8664;DHT22;4369;47.842;13.096;2023-04-16T09:25:02;7.50;99.90
8664;DHT22;4369;47.842;13.096;2023-04-16T09:27:31;7.50;99.90
8664;DHT22;4369;47.842;13.096;2023-04-16T09:29:58;7.50;99.90
8664;DHT22;4369;47.842;13.096;2023-04-16T09:32:26;7.60;99.90
8664;DHT22;4369;47.842;13.096;2023-04-16T09:34:55;7.40;99.90
8664;DHT22;4369;47.842;13.096;2023-04-16T09:37:23;7.40;99.90
8664;DHT22;4369;47.842;13.096;2023-04-16T09:39:55;7.50;99.90
8664;DHT22;4369;47.842;13.096;2023-04-16T09:42:27;7.50;99.90
8664;DHT22;4369;47.842;13.096;2023-04-16T09:44:55;7.50;99.90
8664;DHT22;4369;47.842;13.096;2023-04-16T09:47:23;7.70;99.90
8664;DHT22;4369;47.842;13.096;2023-04-16T09:49:50;7.70;99.90
8664;DHT22;4369;47.842;13.096;2023-04-16T09:52:18;7.80;99.90
8664;DHT22;4369;47.842;13.096;2023-04-16T09:54:47;7.90;99.90
8664;DHT22;4369;47.842;13.096;2023-04-16T09:57:17;8.00;99.90
8664;DHT22;4369;47.842;13.096;2023-04-16T09:59:46;8.10;99.90
8664;DHT22;4369;47.842;13.096;2023-04-16T10:02:13;8.20;99.90
8664;DHT22;4369;47.842;13.096;2023-04-16T10:04:50;8.20;99.90
8664;DHT22;4369;47.842;13.096;2023-04-16T10:07:18;8.30;99.90
8664;DHT22;4369;47.842;13.096;2023-04-16T10:09:46;8.30;99.90
8664;DHT22;4369;47.842;13.096;2023-04-16T10:12:14;8.40;99.90
8664;DHT22;4369;47.842;13.096;2023-04-16T10:14:42;8.60;99.90
8664;DHT22;4369;47.842;13.096;2023-04-16T10:17:09;8.80;99.90
8664;DHT22;4369;47.842;13.096;2023-04-16T10:19:36;9.00;99.90
8664;DHT22;4369;47.842;13.096;2023-04-16T10:22:03;9.00;99.90
8664;DHT22;4369;47.842;13.096;2023-04-16T10:24:32;9.20;99.90
8664;DHT22;4369;47.842;13.096;2023-04-16T10:27:00;9.20;99.90
8664;DHT22;4369;47.842;13.096;2023-04-16T10:29:29;9.10;99.90
8664;DHT22;4369;47.842;13.096;2023-04-16T10:31:58;9.20;99.90
8664;DHT22;4369;47.842;13.096;2023-04-16T10:34:26;9.20;99.90
8664;DHT22;4369;47.842;13.096;2023-04-16T10:36:54;9.30;99.90
8664;DHT22;4369;47.842;13.096;2023-04-16T10:39:22;9.40;99.90
8664;DHT22;4369;47.842;13.096;2023-04-16T10:41:50;9.30;99.90
8664;DHT22;4369;47.842;13.096;2023-04-16T10:44:18;9.30;99.90
8664;DHT22;4369;47.842;13.096;2023-04-16T10:46:46;9.30;99.90
8664;DHT22;4369;47.842;13.096;2023-04-16T10:49:17;9.20;99.90
8664;DHT22;4369;47.842;13.096;2023-04-16T10:51:52;9.10;99.90
8664;DHT22;4369;47.842;13.096;2023-04-16T10:54:24;9.00;99.90
8664;DHT22;4369;47.842;13.096;2023-04-16T10:56:52;9.00;99.90
8664;DHT22;4369;47.842;13.096;2023-04-16T10:59:20;9.00;99.90
8664;DHT22;4369;47.842;13.096;2023-04-16T11:01:51;9.00;99.90
8664;DHT22;4369;47.842;13.096;2023-04-16T11:04:36;9.20;99.90
8664;DHT22;4369;47.842;13.096;2023-04-16T11:07:14;9.30;99.90
8664;DHT22;4369;47.842;13.096;2023-04-16T11:09:53;9.40;99.90
8664;DHT22;4369;47.842;13.096;2023-04-16T11:12:21;9.50;99.90
8664;DHT22;4369;47.842;13.096;2023-04-16T11:14:50;9.70;99.90
8664;DHT22;4369;47.842;13.096;2023-04-16T11:17:17;9.90;99.90
8664;DHT22;4369;47.842;13.096;2023-04-16T11:19:46;10.20;99.90
8664;DHT22;4369;47.842;13.096;2023-04-16T11:22:15;10.20;99.90
8664;DHT22;4369;47.842;13.096;2023-04-16T11:24:43;10.30;99.90
8664;DHT22;4369;47.842;13.096;2023-04-16T11:27:14;10.20;99.90
8664;DHT22;4369;47.842;13.096;2023-04-16T11:29:41;10.30;99.90
8664;DHT22;4369;47.842;13.096;2023-04-16T11:32:08;10.20;99.90
8664;DHT22;4369;47.842;13.096;2023-04-16T11:34:42;10.10;99.90
8664;DHT22;4369;47.842;13.096;2023-04-16T11:37:11;10.00;99.90
8664;DHT22;4369;47.842;13.096;2023-04-16T11:39:49;9.90;99.90
8664;DHT22;4369;47.842;13.096;2023-04-16T11:42:20;9.70;99.90
8664;DHT22;4369;47.842;13.096;2023-04-16T11:44:51;9.70;99.90
8664;DHT22;4369;47.842;13.096;2023-04-16T11:47:19;9.90;99.90
8664;DHT22;4369;47.842;13.096;2023-04-16T11:49:46;10.10;99.90
8664;DHT22;4369;47.842;13.096;2023-04-16T11:52:23;10.70;99.90
8664;DHT22;4369;47.842;13.096;2023-04-16T11:54:51;11.40;99.90
8664;DHT22;4369;47.842;13.096;2023-04-16T11:57:23;12.40;99.90
8664;DHT22;4369;47.842;13.096;2023-04-16T11:59:50;12.80;99.90
8664;DHT22;4369;47.842;13.096;2023-04-16T12:02:17;12.90;99.90
8664;DHT22;4369;47.842;13.096;2023-04-16T12:04:59;13.40;99.90
8664;DHT22;4369;47.842;13.096;2023-04-16T12:07:27;13.40;99.90
8664;DHT22;4369;47.842;13.096;2023-04-16T12:10:04;13.60;99.90
8664;DHT22;4369;47.842;13.096;2023-04-16T12:12:32;13.50;99.90
8664;DHT22;4369;47.842;13.096;2023-04-16T12:15:00;13.60;99.90
8664;DHT22;4369;47.842;13.096;2023-04-16T12:17:28;13.50;99.90
8664;DHT22;4369;47.842;13.096;2023-04-16T12:19:56;13.90;99.90
8664;DHT22;4369;47.842;13.096;2023-04-16T12:22:28;14.30;99.90
8664;DHT22;4369;47.842;13.096;2023-04-16T12:24:57;14.00;99.90
8664;DHT22;4369;47.842;13.096;2023-04-16T12:27:25;13.90;99.90
8664;DHT22;4369;47.842;13.096;2023-04-16T12:30:03;13.50;99.90
8664;DHT22;4369;47.842;13.096;2023-04-16T12:32:31;13.80;99.90
8664;DHT22;4369;47.842;13.096;2023-04-16T12:34:58;13.90;99.90
8664;DHT22;4369;47.842;13.096;2023-04-16T12:37:25;13.90;99.90
8664;DHT22;4369;47.842;13.096;2023-04-16T12:39:53;14.20;99.90
8664;DHT22;4369;47.842;13.096;2023-04-16T12:42:20;13.80;99.90
8664;DHT22;4369;47.842;13.096;2023-04-16T12:44:47;14.10;99.90
8664;DHT22;4369;47.842;13.096;2023-04-16T12:47:14;15.00;99.90
8664;DHT22;4369;47.842;13.096;2023-04-16T12:49:41;15.60;99.90
8664;DHT22;4369;47.842;13.096;2023-04-16T12:52:09;15.70;99.90
8664;DHT22;4369;47.842;13.096;2023-04-16T12:54:35;15.70;99.90
8664;DHT22;4369;47.842;13.096;2023-04-16T12:57:04;15.70;99.90
8664;DHT22;4369;47.842;13.096;2023-04-16T12:59:30;16.00;98.40
8664;DHT22;4369;47.842;13.096;2023-04-16T13:01:59;16.60;98.00
8664;DHT22;4369;47.842;13.096;2023-04-16T13:04:28;18.50;95.40
8664;DHT22;4369;47.842;13.096;2023-04-16T13:06:55;20.90;87.30
8664;DHT22;4369;47.842;13.096;2023-04-16T13:09:22;23.70;70.30
8664;DHT22;4369;47.842;13.096;2023-04-16T13:11:49;25.70;60.00
8664;DHT22;4369;47.842;13.096;2023-04-16T13:14:22;27.60;54.80
8664;DHT22;4369;47.842;13.096;2023-04-16T13:16:50;26.60;52.70
8664;DHT22;4369;47.842;13.096;2023-04-16T13:19:17;24.20;55.20
8664;DHT22;4369;47.842;13.096;2023-04-16T13:21:44;22.30;58.30
8664;DHT22;4369;47.842;13.096;2023-04-16T13:24:11;21.30;60.10
8664;DHT22;4369;47.842;13.096;2023-04-16T13:26:38;20.50;63.40
8664;DHT22;4369;47.842;13.096;2023-04-16T13:29:05;18.70;68.90
8664;DHT22;4369;47.842;13.096;2023-04-16T13:31:33;20.00;67.20
8664;DHT22;4369;47.842;13.096;2023-04-16T13:34:00;19.50;64.30
8664;DHT22;4369;47.842;13.096;2023-04-16T13:36:27;19.10;63.10
8664;DHT22;4369;47.842;13.096;2023-04-16T13:38:56;18.00;63.70
8664;DHT22;4369;47.842;13.096;2023-04-16T13:41:23;16.30;73.00
8664;DHT22;4369;47.842;13.096;2023-04-16T13:43:50;15.00;79.60
8664;DHT22;4369;47.842;13.096;2023-04-16T13:46:17;14.70;90.10
8664;DHT22;4369;47.842;13.096;2023-04-16T13:48:45;14.90;84.00
8664;DHT22;4369;47.842;13.096;2023-04-16T13:51:15;14.50;89.60
8664;DHT22;4369;47.842;13.096;2023-04-16T13:53:42;15.00;90.80
8664;DHT22;4369;47.842;13.096;2023-04-16T13:56:09;15.10;87.80
8664;DHT22;4369;47.842;13.096;2023-04-16T13:58:36;14.30;90.60
8664;DHT22;4369;47.842;13.096;2023-04-16T14:01:03;14.20;92.90
8664;DHT22;4369;47.842;13.096;2023-04-16T14:03:32;13.70;92.90
8664;DHT22;4369;47.842;13.096;2023-04-16T14:06:02;13.60;93.90
8664;DHT22;4369;47.842;13.096;2023-04-16T14:08:30;13.50;96.10
8664;DHT22;4369;47.842;13.096;2023-04-16T14:10:57;13.40;97.30
8664;DHT22;4369;47.842;13.096;2023-04-16T14:13:24;13.30;96.30
8664;DHT22;4369;47.842;13.096;2023-04-16T14:15:52;12.80;96.80
8664;DHT22;4369;47.842;13.096;2023-04-16T14:18:20;12.70;99.90
8664;DHT22;4369;47.842;13.096;2023-04-16T14:20:47;12.60;99.90
8664;DHT22;4369;47.842;13.096;2023-04-16T14:23:15;12.40;99.90
8664;DHT22;4369;47.842;13.096;2023-04-16T14:25:42;12.30;99.90
8664;DHT22;4369;47.842;13.096;2023-04-16T14:28:09;12.00;99.90
8664;DHT22;4369;47.842;13.096;2023-04-16T14:30:36;11.70;99.90
8664;DHT22;4369;47.842;13.096;2023-04-16T14:33:04;11.50;99.90
8664;DHT22;4369;47.842;13.096;2023-04-16T14:35:31;11.40;99.90
8664;DHT22;4369;47.842;13.096;2023-04-16T14:37:58;11.30;99.90
8664;DHT22;4369;47.842;13.096;2023-04-16T14:40:27;11.20;99.90
8664;DHT22;4369;47.842;13.096;2023-04-16T14:42:54;11.20;99.90
8664;DHT22;4369;47.842;13.096;2023-04-16T14:45:21;11.20;99.90
8664;DHT22;4369;47.842;13.096;2023-04-16T14:47:50;11.20;99.90
8664;DHT22;4369;47.842;13.096;2023-04-16T14:50:18;11.20;99.90
8664;DHT22;4369;47.842;13.096;2023-04-16T14:52:45;12.40;99.90
8664;DHT22;4369;47.842;13.096;2023-04-16T14:55:12;15.00;99.90
8664;DHT22;4369;47.842;13.096;2023-04-16T14:57:40;16.30;99.90
8664;DHT22;4369;47.842;13.096;2023-04-16T15:00:08;16.70;96.10
8664;DHT22;4369;47.842;13.096;2023-04-16T15:02:36;16.30;94.20
8664;DHT22;4369;47.842;13.096;2023-04-16T15:05:03;15.70;96.90
8664;DHT22;4369;47.842;13.096;2023-04-16T15:07:32;15.30;97.00
8664;DHT22;4369;47.842;13.096;2023-04-16T15:09:59;14.70;99.20
8664;DHT22;4369;47.842;13.096;2023-04-16T15:12:26;14.00;99.80
8664;DHT22;4369;47.842;13.096;2023-04-16T15:14:54;13.50;99.90
8664;DHT22;4369;47.842;13.096;2023-04-16T15:17:21;12.90;99.90
8664;DHT22;4369;47.842;13.096;2023-04-16T15:19:47;12.50;99.90
8664;DHT22;4369;47.842;13.096;2023-04-16T15:22:16;12.20;99.90
8664;DHT22;4369;47.842;13.096;2023-04-16T15:24:43;11.90;99.90
8664;DHT22;4369;47.842;13.096;2023-04-16T15:27:10;11.80;99.90
8664;DHT22;4369;47.842;13.096;2023-04-16T15:29:39;11.60;99.90
8664;DHT22;4369;47.842;13.096;2023-04-16T15:32:07;11.50;99.90
8664;DHT22;4369;47.842;13.096;2023-04-16T15:34:34;11.60;99.90
8664;DHT22;4369;47.842;13.096;2023-04-16T15:37:01;11.60;99.90
8664;DHT22;4369;47.842;13.096;2023-04-16T15:39:29;11.50;99.90
8664;DHT22;4369;47.842;13.096;2023-04-16T15:41:56;11.30;99.90
8664;DHT22;4369;47.842;13.096;2023-04-16T15:44:23;11.20;99.90
8664;DHT22;4369;47.842;13.096;2023-04-16T15:46:50;11.10;99.90
8664;DHT22;4369;47.842;13.096;2023-04-16T15:49:18;11.20;99.90
8664;DHT22;4369;47.842;13.096;2023-04-16T15:51:45;11.20;99.90
8664;DHT22;4369;47.842;13.096;2023-04-16T15:54:13;11.20;99.90
8664;DHT22;4369;47.842;13.096;2023-04-16T15:56:40;11.10;99.90
8664;DHT22;4369;47.842;13.096;2023-04-16T15:59:07;11.30;99.90
8664;DHT22;4369;47.842;13.096;2023-04-16T16:01:34;11.30;99.90